sensor_id;sensor_type;location;lat;lon;timestamp;P1;durP1;ratioP1;P2;durP2;ratioP2
32146;SDS011;32190;49.112;8.598;2023-08-01T00:03:32;1.27;;;0.80;;
32146;SDS011;32190;49.112;8.598;2023-08-01T00:09:22;0.95;;;0.93;;
32146;SDS011;32190;49.112;8.598;2023-08-01T00:15:13;0.82;;;0.82;;
32146;SDS011;32190;49.112;8.598;2023-08-01T00:21:04;1.35;;;1.23;;
32146;SDS011;32190;49.112;8.598;2023-08-01T00:26:55;1.10;;;1.05;;
32146;SDS011;32190;49.112;8.598;2023-08-01T00:32:46;0.82;;;0.80;;
32146;SDS011;32190;49.112;8.598;2023-08-01T00:38:37;1.20;;;1.10;;
32146;SDS011;32190;49.112;8.598;2023-08-01T00:44:28;1.15;;;1.05;;
32146;SDS011;32190;49.112;8.598;2023-08-01T00:50:18;1.15;;;0.80;;
32146;SDS011;32190;49.112;8.598;2023-08-01T00:56:12;0.80;;;0.80;;
32146;SDS011;32190;49.112;8.598;2023-08-01T01:02:03;1.50;;;1.40;;
32146;SDS011;32190;49.112;8.598;2023-08-01T01:07:54;1.08;;;0.93;;
32146;SDS011;32190;49.112;8.598;2023-08-01T01:13:45;1.23;;;1.13;;
32146;SDS011;32190;49.112;8.598;2023-08-01T01:19:36;1.13;;;1.02;;
32146;SDS011;32190;49.112;8.598;2023-08-01T01:25:26;2.45;;;1.10;;
32146;SDS011;32190;49.112;8.598;2023-08-01T01:31:18;1.30;;;1.20;;
32146;SDS011;32190;49.112;8.598;2023-08-01T01:37:09;1.13;;;1.02;;
32146;SDS011;32190;49.112;8.598;2023-08-01T01:43:00;1.30;;;1.20;;
32146;SDS011;32190;49.112;8.598;2023-08-01T01:48:51;0.98;;;0.98;;
32146;SDS011;32190;49.112;8.598;2023-08-01T01:54:41;1.00;;;0.90;;
32146;SDS011;32190;49.112;8.598;2023-08-01T02:00:32;0.88;;;0.88;;
32146;SDS011;32190;49.112;8.598;2023-08-01T02:06:22;1.13;;;1.00;;
32146;SDS011;32190;49.112;8.598;2023-08-01T02:12:13;1.42;;;1.20;;
32146;SDS011;32190;49.112;8.598;2023-08-01T02:18:04;1.45;;;1.35;;
32146;SDS011;32190;49.112;8.598;2023-08-01T02:23:55;1.42;;;1.33;;
32146;SDS011;32190;49.112;8.598;2023-08-01T02:29:45;1.65;;;1.02;;
32146;SDS011;32190;49.112;8.598;2023-08-01T02:35:36;1.23;;;1.17;;
32146;SDS011;32190;49.112;8.598;2023-08-01T02:41:27;1.05;;;0.95;;
32146;SDS011;32190;49.112;8.598;2023-08-01T02:47:18;1.73;;;1.10;;
32146;SDS011;32190;49.112;8.598;2023-08-01T02:53:08;1.48;;;1.27;;
32146;SDS011;32190;49.112;8.598;2023-08-01T02:58:59;1.17;;;1.05;;
32146;SDS011;32190;49.112;8.598;2023-08-01T03:04:49;1.10;;;1.00;;
32146;SDS011;32190;49.112;8.598;2023-08-01T03:10:40;1.15;;;1.02;;
32146;SDS011;32190;49.112;8.598;2023-08-01T03:16:31;1.38;;;1.05;;
32146;SDS011;32190;49.112;8.598;2023-08-01T03:22:21;1.15;;;1.00;;
32146;SDS011;32190;49.112;8.598;2023-08-01T03:28:12;1.17;;;1.08;;
32146;SDS011;32190;49.112;8.598;2023-08-01T03:34:04;1.42;;;1.33;;
32146;SDS011;32190;49.112;8.598;2023-08-01T03:39:54;1.17;;;0.90;;
32146;SDS011;32190;49.112;8.598;2023-08-01T03:45:45;1.58;;;1.48;;
32146;SDS011;32190;49.112;8.598;2023-08-01T03:51:35;1.40;;;1.30;;
32146;SDS011;32190;49.112;8.598;2023-08-01T03:57:26;3.67;;;1.45;;
32146;SDS011;32190;49.112;8.598;2023-08-01T04:03:16;2.35;;;1.30;;
32146;SDS011;32190;49.112;8.598;2023-08-01T04:09:07;1.40;;;1.17;;
32146;SDS011;32190;49.112;8.598;2023-08-01T04:14:58;0.82;;;0.82;;
32146;SDS011;32190;49.112;8.598;2023-08-01T04:20:49;1.15;;;0.93;;
32146;SDS011;32190;49.112;8.598;2023-08-01T04:26:39;1.00;;;1.00;;
32146;SDS011;32190;49.112;8.598;2023-08-01T04:32:31;2.78;;;1.20;;
32146;SDS011;32190;49.112;8.598;2023-08-01T04:38:21;1.25;;;1.15;;
32146;SDS011;32190;49.112;8.598;2023-08-01T04:44:12;1.20;;;0.98;;
32146;SDS011;32190;49.112;8.598;2023-08-01T04:50:03;1.98;;;1.25;;
32146;SDS011;32190;49.112;8.598;2023-08-01T04:55:54;1.95;;;1.05;;
32146;SDS011;32190;49.112;8.598;2023-08-01T05:01:44;1.08;;;1.08;;
32146;SDS011;32190;49.112;8.598;2023-08-01T05:07:35;0.80;;;0.80;;
32146;SDS011;32190;49.112;8.598;2023-08-01T05:13:25;0.73;;;0.70;;
32146;SDS011;32190;49.112;8.598;2023-08-01T05:19:16;1.05;;;0.80;;
32146;SDS011;32190;49.112;8.598;2023-08-01T05:25:07;0.80;;;0.80;;
32146;SDS011;32190;49.112;8.598;2023-08-01T05:30:57;1.13;;;1.02;;
32146;SDS011;32190;49.112;8.598;2023-08-01T05:36:48;1.15;;;0.90;;
32146;SDS011;32190;49.112;8.598;2023-08-01T05:42:40;1.33;;;0.68;;
32146;SDS011;32190;49.112;8.598;2023-08-01T05:48:30;1.70;;;1.30;;
32146;SDS011;32190;49.112;8.598;2023-08-01T05:54:21;1.55;;;0.93;;
32146;SDS011;32190;49.112;8.598;2023-08-01T06:00:12;2.40;;;0.98;;
32146;SDS011;32190;49.112;8.598;2023-08-01T06:06:03;1.00;;;1.00;;
32146;SDS011;32190;49.112;8.598;2023-08-01T06:11:54;1.42;;;1.30;;
32146;SDS011;32190;49.112;8.598;2023-08-01T06:17:44;1.10;;;1.00;;
32146;SDS011;32190;49.112;8.598;2023-08-01T06:23:35;2.05;;;1.45;;
32146;SDS011;32190;49.112;8.598;2023-08-01T06:29:26;1.98;;;1.27;;
32146;SDS011;32190;49.112;8.598;2023-08-01T06:35:16;1.40;;;1.30;;
32146;SDS011;32190;49.112;8.598;2023-08-01T06:41:07;1.83;;;1.35;;
32146;SDS011;32190;49.112;8.598;2023-08-01T06:46:57;1.40;;;1.20;;
32146;SDS011;32190;49.112;8.598;2023-08-01T06:52:48;2.40;;;1.20;;
32146;SDS011;32190;49.112;8.598;2023-08-01T06:58:39;1.98;;;1.40;;
32146;SDS011;32190;49.112;8.598;2023-08-01T07:04:29;0.85;;;0.85;;
32146;SDS011;32190;49.112;8.598;2023-08-01T07:10:20;1.40;;;1.13;;
32146;SDS011;32190;49.112;8.598;2023-08-01T07:16:11;1.40;;;1.30;;
32146;SDS011;32190;49.112;8.598;2023-08-01T07:22:01;1.67;;;1.38;;
32146;SDS011;32190;49.112;8.598;2023-08-01T07:27:52;2.45;;;1.38;;
32146;SDS011;32190;49.112;8.598;2023-08-01T07:33:42;1.70;;;1.50;;
32146;SDS011;32190;49.112;8.598;2023-08-01T07:39:33;3.33;;;1.40;;
32146;SDS011;32190;49.112;8.598;2023-08-01T07:45:24;1.92;;;1.25;;
32146;SDS011;32190;49.112;8.598;2023-08-01T07:51:15;2.25;;;1.30;;
32146;SDS011;32190;49.112;8.598;2023-08-01T07:57:06;1.67;;;1.20;;
32146;SDS011;32190;49.112;8.598;2023-08-01T08:02:56;1.42;;;1.33;;
32146;SDS011;32190;49.112;8.598;2023-08-01T08:08:47;1.30;;;0.95;;
32146;SDS011;32190;49.112;8.598;2023-08-01T08:14:37;1.27;;;1.17;;
32146;SDS011;32190;49.112;8.598;2023-08-01T08:20:28;0.95;;;0.90;;
32146;SDS011;32190;49.112;8.598;2023-08-01T08:26:19;0.82;;;0.80;;
32146;SDS011;32190;49.112;8.598;2023-08-01T08:32:09;0.63;;;0.57;;
32146;SDS011;32190;49.112;8.598;2023-08-01T08:38:01;0.65;;;0.60;;
32146;SDS011;32190;49.112;8.598;2023-08-01T08:43:57;0.52;;;0.52;;
32146;SDS011;32190;49.112;8.598;2023-08-01T08:49:49;1.10;;;0.70;;
32146;SDS011;32190;49.112;8.598;2023-08-01T08:55:40;1.42;;;0.75;;
32146;SDS011;32190;49.112;8.598;2023-08-01T09:01:31;0.40;;;0.40;;
32146;SDS011;32190;49.112;8.598;2023-08-01T09:07:23;0.52;;;0.43;;
32146;SDS011;32190;49.112;8.598;2023-08-01T09:13:17;0.88;;;0.60;;
32146;SDS011;32190;49.112;8.598;2023-08-01T09:19:08;0.73;;;0.73;;
32146;SDS011;32190;49.112;8.598;2023-08-01T09:24:59;0.40;;;0.40;;
32146;SDS011;32190;49.112;8.598;2023-08-01T09:30:51;0.90;;;0.60;;
32146;SDS011;32190;49.112;8.598;2023-08-01T09:36:44;0.50;;;0.50;;
32146;SDS011;32190;49.112;8.598;2023-08-01T09:42:38;0.40;;;0.40;;
32146;SDS011;32190;49.112;8.598;2023-08-01T09:48:30;0.47;;;0.47;;
32146;SDS011;32190;49.112;8.598;2023-08-01T09:54:21;0.40;;;0.40;;
32146;SDS011;32190;49.112;8.598;2023-08-01T10:00:12;0.43;;;0.43;;
32146;SDS011;32190;49.112;8.598;2023-08-01T10:06:03;2.00;;;0.45;;
32146;SDS011;32190;49.112;8.598;2023-08-01T10:11:56;0.30;;;0.30;;
32146;SDS011;32190;49.112;8.598;2023-08-01T10:17:47;0.40;;;0.40;;
32146;SDS011;32190;49.112;8.598;2023-08-01T10:23:38;0.35;;;0.30;;
32146;SDS011;32190;49.112;8.598;2023-08-01T10:29:35;0.50;;;0.50;;
32146;SDS011;32190;49.112;8.598;2023-08-01T10:41:27;0.43;;;0.43;;
32146;SDS011;32190;49.112;8.598;2023-08-01T10:47:26;0.40;;;0.40;;
32146;SDS011;32190;49.112;8.598;2023-08-01T10:53:17;0.30;;;0.30;;
32146;SDS011;32190;49.112;8.598;2023-08-01T10:59:08;0.57;;;0.57;;
32146;SDS011;32190;49.112;8.598;2023-08-01T11:05:00;0.47;;;0.47;;
32146;SDS011;32190;49.112;8.598;2023-08-01T11:10:54;0.40;;;0.40;;
32146;SDS011;32190;49.112;8.598;2023-08-01T11:16:45;0.40;;;0.40;;
32146;SDS011;32190;49.112;8.598;2023-08-01T11:22:37;0.43;;;0.43;;
32146;SDS011;32190;49.112;8.598;2023-08-01T11:28:38;0.47;;;0.47;;
32146;SDS011;32190;49.112;8.598;2023-08-01T11:34:29;0.50;;;0.50;;
32146;SDS011;32190;49.112;8.598;2023-08-01T11:40:30;0.40;;;0.40;;
32146;SDS011;32190;49.112;8.598;2023-08-01T11:46:22;0.55;;;0.55;;
32146;SDS011;32190;49.112;8.598;2023-08-01T11:52:27;0.50;;;0.40;;
32146;SDS011;32190;49.112;8.598;2023-08-01T11:58:31;0.55;;;0.47;;
32146;SDS011;32190;49.112;8.598;2023-08-01T12:04:29;0.52;;;0.50;;
32146;SDS011;32190;49.112;8.598;2023-08-01T12:10:19;0.75;;;0.45;;
32146;SDS011;32190;49.112;8.598;2023-08-01T12:16:10;0.47;;;0.47;;
32146;SDS011;32190;49.112;8.598;2023-08-01T12:22:01;0.43;;;0.43;;
32146;SDS011;32190;49.112;8.598;2023-08-01T12:27:51;0.68;;;0.60;;
32146;SDS011;32190;49.112;8.598;2023-08-01T12:33:42;0.63;;;0.47;;
32146;SDS011;32190;49.112;8.598;2023-08-01T12:39:32;1.77;;;0.43;;
32146;SDS011;32190;49.112;8.598;2023-08-01T12:45:23;0.50;;;0.50;;
32146;SDS011;32190;49.112;8.598;2023-08-01T12:51:13;0.77;;;0.55;;
32146;SDS011;32190;49.112;8.598;2023-08-01T12:57:04;1.08;;;0.57;;
32146;SDS011;32190;49.112;8.598;2023-08-01T13:02:55;0.50;;;0.50;;
32146;SDS011;32190;49.112;8.598;2023-08-01T13:08:46;4.20;;;0.80;;
32146;SDS011;32190;49.112;8.598;2023-08-01T13:14:36;1.73;;;0.70;;
32146;SDS011;32190;49.112;8.598;2023-08-01T13:20:28;0.47;;;0.47;;
32146;SDS011;32190;49.112;8.598;2023-08-01T13:26:18;0.45;;;0.45;;
32146;SDS011;32190;49.112;8.598;2023-08-01T13:32:09;0.57;;;0.45;;
32146;SDS011;32190;49.112;8.598;2023-08-01T13:37:59;0.52;;;0.52;;
32146;SDS011;32190;49.112;8.598;2023-08-01T13:43:50;0.50;;;0.50;;
32146;SDS011;32190;49.112;8.598;2023-08-01T13:49:41;0.50;;;0.45;;
32146;SDS011;32190;49.112;8.598;2023-08-01T13:55:31;0.60;;;0.52;;
32146;SDS011;32190;49.112;8.598;2023-08-01T14:01:22;0.77;;;0.60;;
32146;SDS011;32190;49.112;8.598;2023-08-01T14:07:14;0.60;;;0.60;;
32146;SDS011;32190;49.112;8.598;2023-08-01T14:13:05;0.43;;;0.40;;
32146;SDS011;32190;49.112;8.598;2023-08-01T14:18:56;0.88;;;0.52;;
32146;SDS011;32190;49.112;8.598;2023-08-01T14:24:47;0.40;;;0.40;;
32146;SDS011;32190;49.112;8.598;2023-08-01T14:30:38;1.40;;;0.63;;
32146;SDS011;32190;49.112;8.598;2023-08-01T14:36:29;0.82;;;0.70;;
32146;SDS011;32190;49.112;8.598;2023-08-01T14:42:19;0.45;;;0.45;;
32146;SDS011;32190;49.112;8.598;2023-08-01T14:48:10;0.40;;;0.40;;
32146;SDS011;32190;49.112;8.598;2023-08-01T14:54:01;0.32;;;0.32;;
32146;SDS011;32190;49.112;8.598;2023-08-01T14:59:52;0.82;;;0.52;;
32146;SDS011;32190;49.112;8.598;2023-08-01T15:05:42;0.40;;;0.40;;
32146;SDS011;32190;49.112;8.598;2023-08-01T15:11:33;0.60;;;0.60;;
32146;SDS011;32190;49.112;8.598;2023-08-01T15:17:25;2.05;;;0.70;;
32146;SDS011;32190;49.112;8.598;2023-08-01T15:23:15;0.60;;;0.40;;
32146;SDS011;32190;49.112;8.598;2023-08-01T15:29:06;0.47;;;0.47;;
32146;SDS011;32190;49.112;8.598;2023-08-01T15:34:56;0.63;;;0.40;;
32146;SDS011;32190;49.112;8.598;2023-08-01T15:40:47;0.40;;;0.40;;
32146;SDS011;32190;49.112;8.598;2023-08-01T15:46:39;0.50;;;0.50;;
32146;SDS011;32190;49.112;8.598;2023-08-01T15:52:29;0.68;;;0.40;;
32146;SDS011;32190;49.112;8.598;2023-08-01T15:58:20;0.47;;;0.43;;
32146;SDS011;32190;49.112;8.598;2023-08-01T16:04:10;1.15;;;0.70;;
32146;SDS011;32190;49.112;8.598;2023-08-01T16:10:02;0.60;;;0.60;;
32146;SDS011;32190;49.112;8.598;2023-08-01T16:15:53;0.40;;;0.32;;
32146;SDS011;32190;49.112;8.598;2023-08-01T16:21:44;0.40;;;0.40;;
32146;SDS011;32190;49.112;8.598;2023-08-01T16:27:35;0.75;;;0.55;;
32146;SDS011;32190;49.112;8.598;2023-08-01T16:33:26;0.55;;;0.55;;
32146;SDS011;32190;49.112;8.598;2023-08-01T16:39:16;0.95;;;0.65;;
32146;SDS011;32190;49.112;8.598;2023-08-01T16:45:07;0.50;;;0.50;;
32146;SDS011;32190;49.112;8.598;2023-08-01T16:50:59;0.52;;;0.52;;
32146;SDS011;32190;49.112;8.598;2023-08-01T16:56:50;0.80;;;0.60;;
32146;SDS011;32190;49.112;8.598;2023-08-01T17:02:41;0.73;;;0.45;;
32146;SDS011;32190;49.112;8.598;2023-08-01T17:08:31;1.05;;;0.50;;
32146;SDS011;32190;49.112;8.598;2023-08-01T17:14:22;0.50;;;0.50;;
32146;SDS011;32190;49.112;8.598;2023-08-01T17:20:13;1.33;;;0.60;;
32146;SDS011;32190;49.112;8.598;2023-08-01T17:26:03;0.55;;;0.55;;
32146;SDS011;32190;49.112;8.598;2023-08-01T17:31:54;0.60;;;0.60;;
32146;SDS011;32190;49.112;8.598;2023-08-01T17:37:45;0.57;;;0.43;;
32146;SDS011;32190;49.112;8.598;2023-08-01T17:43:35;1.00;;;0.70;;
32146;SDS011;32190;49.112;8.598;2023-08-01T17:49:26;0.68;;;0.60;;
32146;SDS011;32190;49.112;8.598;2023-08-01T17:55:16;2.05;;;0.60;;
32146;SDS011;32190;49.112;8.598;2023-08-01T18:01:08;0.90;;;0.43;;
32146;SDS011;32190;49.112;8.598;2023-08-01T18:06:59;0.50;;;0.50;;
32146;SDS011;32190;49.112;8.598;2023-08-01T18:12:50;0.93;;;0.50;;
32146;SDS011;32190;49.112;8.598;2023-08-01T18:18:40;0.90;;;0.55;;
32146;SDS011;32190;49.112;8.598;2023-08-01T18:24:31;0.77;;;0.60;;
32146;SDS011;32190;49.112;8.598;2023-08-01T18:30:22;0.95;;;0.52;;
32146;SDS011;32190;49.112;8.598;2023-08-01T18:36:17;1.38;;;0.55;;
32146;SDS011;32190;49.112;8.598;2023-08-01T18:42:10;0.32;;;0.32;;
32146;SDS011;32190;49.112;8.598;2023-08-01T18:48:00;1.05;;;0.90;;
32146;SDS011;32190;49.112;8.598;2023-08-01T18:53:51;0.50;;;0.40;;
32146;SDS011;32190;49.112;8.598;2023-08-01T18:59:41;0.70;;;0.70;;
32146;SDS011;32190;49.112;8.598;2023-08-01T19:05:32;1.65;;;0.47;;
32146;SDS011;32190;49.112;8.598;2023-08-01T19:11:23;0.50;;;0.50;;
32146;SDS011;32190;49.112;8.598;2023-08-01T19:17:14;0.70;;;0.70;;
32146;SDS011;32190;49.112;8.598;2023-08-01T19:23:04;1.00;;;0.68;;
32146;SDS011;32190;49.112;8.598;2023-08-01T19:28:55;1.58;;;0.75;;
32146;SDS011;32190;49.112;8.598;2023-08-01T19:34:46;0.50;;;0.45;;
32146;SDS011;32190;49.112;8.598;2023-08-01T19:40:40;1.27;;;0.77;;
32146;SDS011;32190;49.112;8.598;2023-08-01T19:46:32;0.90;;;0.50;;
32146;SDS011;32190;49.112;8.598;2023-08-01T19:52:22;0.40;;;0.40;;
32146;SDS011;32190;49.112;8.598;2023-08-01T19:58:13;0.60;;;0.60;;
32146;SDS011;32190;49.112;8.598;2023-08-01T20:04:04;0.82;;;0.68;;
32146;SDS011;32190;49.112;8.598;2023-08-01T20:09:54;0.40;;;0.40;;
32146;SDS011;32190;49.112;8.598;2023-08-01T20:15:45;0.30;;;0.30;;
32146;SDS011;32190;49.112;8.598;2023-08-01T20:21:36;0.28;;;0.28;;
32146;SDS011;32190;49.112;8.598;2023-08-01T20:27:26;0.60;;;0.55;;
32146;SDS011;32190;49.112;8.598;2023-08-01T20:33:17;1.48;;;0.50;;
32146;SDS011;32190;49.112;8.598;2023-08-01T20:39:07;0.40;;;0.40;;
32146;SDS011;32190;49.112;8.598;2023-08-01T20:44:58;0.40;;;0.40;;
32146;SDS011;32190;49.112;8.598;2023-08-01T20:50:48;1.40;;;0.70;;
32146;SDS011;32190;49.112;8.598;2023-08-01T20:56:39;1.60;;;0.40;;
32146;SDS011;32190;49.112;8.598;2023-08-01T21:02:30;0.82;;;0.68;;
32146;SDS011;32190;49.112;8.598;2023-08-01T21:08:20;1.45;;;0.50;;
32146;SDS011;32190;49.112;8.598;2023-08-01T21:14:12;0.30;;;0.30;;
32146;SDS011;32190;49.112;8.598;2023-08-01T21:20:03;1.60;;;0.60;;
32146;SDS011;32190;49.112;8.598;2023-08-01T21:25:54;0.55;;;0.45;;
32146;SDS011;32190;49.112;8.598;2023-08-01T21:31:44;0.70;;;0.70;;
32146;SDS011;32190;49.112;8.598;2023-08-01T21:37:35;0.35;;;0.35;;
32146;SDS011;32190;49.112;8.598;2023-08-01T21:43:25;0.63;;;0.32;;
32146;SDS011;32190;49.112;8.598;2023-08-01T21:49:16;0.63;;;0.30;;
32146;SDS011;32190;49.112;8.598;2023-08-01T21:55:07;0.90;;;0.60;;
32146;SDS011;32190;49.112;8.598;2023-08-01T22:00:57;1.23;;;0.47;;
32146;SDS011;32190;49.112;8.598;2023-08-01T22:06:48;0.45;;;0.45;;
32146;SDS011;32190;49.112;8.598;2023-08-01T22:12:39;0.40;;;0.40;;
32146;SDS011;32190;49.112;8.598;2023-08-01T22:18:32;0.50;;;0.50;;
32146;SDS011;32190;49.112;8.598;2023-08-01T22:24:22;0.50;;;0.50;;
32146;SDS011;32190;49.112;8.598;2023-08-01T22:30:13;1.10;;;0.77;;
32146;SDS011;32190;49.112;8.598;2023-08-01T22:36:07;0.65;;;0.60;;
32146;SDS011;32190;49.112;8.598;2023-08-01T22:41:59;0.60;;;0.50;;
32146;SDS011;32190;49.112;8.598;2023-08-01T22:47:53;0.73;;;0.50;;
32146;SDS011;32190;49.112;8.598;2023-08-01T22:53:44;1.10;;;0.70;;
32146;SDS011;32190;49.112;8.598;2023-08-01T22:59:36;0.52;;;0.52;;
32146;SDS011;32190;49.112;8.598;2023-08-01T23:05:27;0.90;;;0.50;;
32146;SDS011;32190;49.112;8.598;2023-08-01T23:11:18;0.60;;;0.50;;
32146;SDS011;32190;49.112;8.598;2023-08-01T23:17:08;0.60;;;0.45;;
32146;SDS011;32190;49.112;8.598;2023-08-01T23:22:59;1.00;;;0.50;;
32146;SDS011;32190;49.112;8.598;2023-08-01T23:28:50;0.77;;;0.50;;
32146;SDS011;32190;49.112;8.598;2023-08-01T23:34:40;0.70;;;0.57;;
32146;SDS011;32190;49.112;8.598;2023-08-01T23:40:31;0.75;;;0.63;;
32146;SDS011;32190;49.112;8.598;2023-08-01T23:46:22;0.55;;;0.40;;
32146;SDS011;32190;49.112;8.598;2023-08-01T23:52:13;0.88;;;0.50;;
32146;SDS011;32190;49.112;8.598;2023-08-01T23:58:04;0.50;;;0.50;;
